« 趣味的航空路誌改訂情報 2019/10/10 thu | トップページ | 来襲 富山空港 2019/10/12 sat »

2019/10/11

撃鉄1 小松飛行場 2019/10/10 thu

7月以来の小松空港ターミナルビル。いたちの後にかえるがやって来たので、寄ってみました。

RJNK 092200Z VRB02KT 9999 NSC 12/10 Q1017

20191010_rjnk_00komatsu

抜ける秋晴れの青空

20191010_rjnk_01f328087

今朝の活動は、ゆっくり目

20191010_rjnk_02f078434

アグ格から引っ張り出されました。

20191010_rjnk_03f778375

新田原時代は、まず見ることがなかったケロヨン

20191010_rjnk_04f778395

アグが出張中の小松展開かな 5機来ているようです。

20191010_rjnk_05fdp

消防小隊も朝のお勤め

20191010_rjnk_06ja66an

今日も元気に、いってらっしゃい

20191010_rjnk_07ja66an

ANA752 RJNK-RJTT JA66AN B737-881

RJNK 092300Z 18003KT 150V210 9999 NSC 14/11 Q1017

20191010_rjnk_08ja332j

JAL182 RJNK-RJTT JA332J B737-846

20191010_rjnk_09ja11rj

IBX62 RJNK-RJSS JA11RJ CRJ-702ER

20191010_rjnk_10ja829d

JA829D R66 44かと思いきや66やと

20191010_rjnk_11u023014

02-3014 U-125A NIIGATA-ARS R31

20191010_rjnk_12ja128d

JA128D B429 NNK 石川県ドクターヘリ

20191010_rjnk_13ja307k

ANA1232 RJFF-RJNK JA307K B737-54K

20191010_rjnk_14ja307k

いつまで飛ぶのか、ドルフィンさん

20191010_rjnk_15ja613j

JAL183 RJTT-RJNK JA613J B767-346ER

20191010_rjnk_16h784604

78-4604 UH-60JII KOMATSU-ARS F43

RJNK 100000Z VRB01KT 9999 FEW250 18/11 Q1017

20191010_rjnk_17ja307k

ANA1231 RJNK-RJFF JA307K B737-54K

20191010_rjnk_18lxvcj

遅れていたカーゴルクスさんが到着

20191010_rjnk_19lxvcj

CLX9763 ZHCC-RJNK LX-VCJ B747-8R7F

20191010_rjnk_20lxvcj

20191010_rjnk_21lxvcj

トヨタのランドクルーザー載っていたな

20191010_rjnk_22gam

高射隊の展開訓練が行われている模様(たぶん第12高射隊)

20191010_rjnk_23f428947

42-8947 F-15J 306SQ J21 9時半過ぎから、それまでは岐阜さんの模様

20191010_rjnk_24f928911

92-8911 F-15J 306SQ J22

20191010_rjnk_25f328097

32-8097 F-15DJ 306SQ J23

20191010_rjnk_26f728961

72-8961 F-15J 306SQ J24

20191010_rjnk_27u023014

02-3014 U-125A R31

20191010_rjnk_28ja618a

ANA751 RJTT-RJNK JA618A B767-381ER

20191010_rjnk_29f4

壮大なB6の煙につつまれて

20191010_rjnk_30f178437

お爺さん達のお出まし

20191010_rjnk_31ja613j

JAL184 RJNK-RJTT JA613J B767-346ER

20191010_rjnk_32t415063

41-5063 T-400 41FTS R63

20191010_rjnk_33h784604

78-4604 ↓ F41

20191010_rjnk_34f178437

17-8437 F-4EJk 301SQ RISER23

20191010_rjnk_35f778395

77-8395 F-4EJk 301SQ R24

20191010_rjnk_36ja893f

JA893F B412EP 石川県防災

FIRE ATTACKER を付けている

20191010_rjnk_37f528951

南地区から青組みさん続々登場

20191010_rjnk_38h784604

78-4604 ↑ F42

20191010_rjnk_39ja829d

JA829D ↓

RJNK 100100Z 32003KT 230V020 9999 FEW250 20/12 Q1017

20191010_rjnk_40f528951

52-8951 F-15J 303SQ M01

20191010_rjnk_41f228056

22-8056 F-15DJ 303SQ M02

20191010_rjnk_42f428844

42-8844 F-15J 303SQ M03

20191010_rjnk_43f428937

42-8937 F-15J 303SQ M04

20191010_rjnk_44f328817

32-8817 F-15J 303SQ M05

20191010_rjnk_45f528859

52-8859 F-15J 303SQ M06

20191010_rjnk_46f328816

32-8816 F-15J 303SQ M07

20191010_rjnk_47f328819

32-8819 F-15J 303SQ M08

20191010_rjnk_48lxvcj

上がるものが上がったらランチェン。RW06エンドへ移動してみます。

つづく

|

« 趣味的航空路誌改訂情報 2019/10/10 thu | トップページ | 来襲 富山空港 2019/10/12 sat »

小松飛行場」カテゴリの記事

コメント

コメントを書く



(ウェブ上には掲載しません)


コメントは記事投稿者が公開するまで表示されません。



« 趣味的航空路誌改訂情報 2019/10/10 thu | トップページ | 来襲 富山空港 2019/10/12 sat »